Christina O — C6FN7 — position and weather

sailwx.info

Track history (hours):
 
Tides and Currents Weather Stations Pressure Air Temp Water Temp Dewpoint Dewpoint Depression Visibility Wind Speed Wind Dir Waves Ship Positions

Christina O

Operator: V Ships Leisure SAM

Last reported at 2015-Apr-01 15:07 UTC. Time now 2015-Apr-02 06:32 UTC.
Position S 29°52' E 031°02'.

Length 186 m; draft 6.1 m.

Type: Ship. MMSI: 308322000.

Date/timePositionNaut miles runAvg speedWind from/ knotsBaromVisibWave heightAir tempDewpointWater temp
2015-Apr-01 15:07S 29°52' E 031°02'0 0.0
2015-Apr-01 14:31S 29°52' E 031°02'0 0.0
2015-Apr-01 13:19S 29°52' E 031°02'0 0.0
2015-Apr-01 12:25S 29°52' E 031°02'0 0.0
2015-Apr-01 11:31S 29°52' E 031°02'0 0.0
2015-Apr-01 10:31S 29°52' E 031°02'0 0.0
2015-Apr-01 09:19S 29°52' E 031°02'0 0.0
2015-Apr-01 08:19S 29°52' E 031°02'0 0.0
2015-Apr-01 07:31S 29°52' E 031°02'8 2.6
2015-Apr-01 04:33S 29°48' E 031°10'3712.1
2015-Apr-01 01:31S 29°23' E 031°40'  
2015-Mar-28 12:32S 15°28' E 046°10'1212.4
2015-Mar-28 11:34S 15°40' E 046°12'5 5.2
2015-Mar-28 10:32S 15°43' E 046°16'0 0.0
2015-Mar-28 09:31S 15°43' E 046°16'0 0.0
2015-Mar-28 08:31S 15°43' E 046°16'0 0.0
2015-Mar-28 07:31S 15°43' E 046°16'0 0.0
2015-Mar-28 06:31S 15°43' E 046°16'0 0.0
2015-Mar-28 05:28S 15°43' E 046°16'1 1.1
2015-Mar-28 04:34S 15°42' E 046°15'8 8.4
2015-Mar-28 03:34S 15°35' E 046°12'1514.1
2015-Mar-28 02:29S 15°21' E 046°19'  
Track history (hours):
 
Tides and Currents Weather Stations Pressure Air Temp Water Temp Dewpoint Dewpoint Depression Visibility Wind Speed Wind Dir Waves Ship Positions

Christina O

Operator: V Ships Leisure SAM

Last reported at 2015-Apr-01 15:07 UTC. Time now 2015-Apr-02 06:32 UTC.
Position S 29°52' E 031°02'.

Length 186 m; draft 6.1 m.

Type: Ship. MMSI: 308322000.

Date/timePositionNaut miles runAvg speedWind from/ knotsBaromVisibWave heightAir tempDewpointWater temp
2015-Apr-01 15:07S 29°52' E 031°02'0 0.0
2015-Apr-01 14:31S 29°52' E 031°02'0 0.0
2015-Apr-01 13:19S 29°52' E 031°02'0 0.0
2015-Apr-01 12:25S 29°52' E 031°02'0 0.0
2015-Apr-01 11:31S 29°52' E 031°02'0 0.0
2015-Apr-01 10:31S 29°52' E 031°02'0 0.0
2015-Apr-01 09:19S 29°52' E 031°02'0 0.0
2015-Apr-01 08:19S 29°52' E 031°02'0 0.0
2015-Apr-01 07:31S 29°52' E 031°02'8 2.6
2015-Apr-01 04:33S 29°48' E 031°10'3712.1
2015-Apr-01 01:31S 29°23' E 031°40'  
2015-Mar-28 12:32S 15°28' E 046°10'1212.4
2015-Mar-28 11:34S 15°40' E 046°12'5 5.2
2015-Mar-28 10:32S 15°43' E 046°16'0 0.0
2015-Mar-28 09:31S 15°43' E 046°16'0 0.0
2015-Mar-28 08:31S 15°43' E 046°16'0 0.0
2015-Mar-28 07:31S 15°43' E 046°16'0 0.0
2015-Mar-28 06:31S 15°43' E 046°16'0 0.0
2015-Mar-28 05:28S 15°43' E 046°16'1 1.1
2015-Mar-28 04:34S 15°42' E 046°15'8 8.4
2015-Mar-28 03:34S 15°35' E 046°12'1514.1
2015-Mar-28 02:29S 15°21' E 046°19'  

Dump ship's entire track history